PWSweather.com
Personal Weather Stations
Station Observations
EDGELEY
Edgeley, Nd, Edgeley, ND 58433

Edgeley, NdEdgeley, ND 58433

Lat: 46.3599246, Lon: -98.7144392

Elevation: 1575

Station Type: Davis/Vantage Pro

www.edgeleyweather.com

High Low Average
Temperature 76.7°F24.8°C 52.2°F11.2°C 63.7°F17.6°C
Dew Point 56.0°F13.3°C 41.2°F5.1°C 49.7°F9.8°C
Winds 18.0 mph 29.0 kmh Calm Calm 3.0 mph N4.8 kmh N
Wind Gusts 25.0 mph40.2 kmh -- 7.0 mph11.3 kmh
Humidity 86% 29% 63%
Pressure 30.06 in1017.9 mb 29.90 in1012.5 mb -
Precipitation 0.00 in0.0 mm - -
Hour Temp Dew Point Humidity Winds Wind Gusts Pressure Precip Precip Rate Daily Precip Total
12:00 AM 58.0°F14.4°C 50.1°F10.1°C 75% 1.0 mph N1.6 kmh N 2.0 mph3.2 kmh 30.02 in1016.6 mb 0.00 in0.0 mm 0.00 in0.0 mm 0.00 in0.0 mm
12:05 AM 57.9°F14.4°C 50.0°F10.0°C 75% 1.0 mph N1.6 kmh N 3.0 mph4.8 kmh 30.02 in1016.6 mb 0.00 in0.0 mm 0.00 in0.0 mm 0.00 in0.0 mm
12:10 AM 57.9°F14.4°C 50.0°F10.0°C 75% 2.0 mph N3.2 kmh N 4.0 mph6.4 kmh 30.01 in1016.3 mb 0.00 in0.0 mm 0.00 in0.0 mm 0.00 in0.0 mm
12:15 AM 57.9°F14.4°C 49.7°F9.8°C 74% 3.0 mph N4.8 kmh N 3.0 mph4.8 kmh 30.01 in1016.3 mb 0.00 in0.0 mm 0.00 in0.0 mm 0.00 in0.0 mm
12:20 AM 58.1°F14.5°C 49.5°F9.7°C 73% 1.0 mph N1.6 kmh N 6.0 mph9.7 kmh 30.01 in1016.3 mb 0.00 in0.0 mm 0.00 in0.0 mm 0.00 in0.0 mm
12:25 AM 58.3°F14.6°C 49.3°F9.6°C 72% 3.0 mph N4.8 kmh N 6.0 mph9.7 kmh 30.01 in1016.3 mb 0.00 in0.0 mm 0.00 in0.0 mm 0.00 in0.0 mm
12:30 AM 58.5°F14.7°C 49.5°F9.7°C 72% 3.0 mph N4.8 kmh N 4.0 mph6.4 kmh 30.01 in1016.3 mb 0.00 in0.0 mm 0.00 in0.0 mm 0.00 in0.0 mm
12:35 AM 58.6°F14.8°C 49.2°F9.6°C 71% 3.0 mph N4.8 kmh N 5.0 mph8.0 kmh 30.01 in1016.3 mb 0.00 in0.0 mm 0.00 in0.0 mm 0.00 in0.0 mm
12:40 AM 58.7°F14.8°C 49.3°F9.6°C 71% 3.0 mph N4.8 kmh N 7.0 mph11.3 kmh 30.01 in1016.3 mb 0.00 in0.0 mm 0.00 in0.0 mm 0.00 in0.0 mm
12:45 AM 58.7°F14.8°C 49.0°F9.4°C 70% 4.0 mph N6.4 kmh N 4.0 mph6.4 kmh 30.01 in1016.3 mb 0.00 in0.0 mm 0.00 in0.0 mm 0.00 in0.0 mm
12:50 AM 58.8°F14.9°C 49.1°F9.5°C 70% 4.0 mph N6.4 kmh N 6.0 mph9.7 kmh 30.01 in1016.3 mb 0.00 in0.0 mm 0.00 in0.0 mm 0.00 in0.0 mm
12:55 AM 58.8°F14.9°C 49.1°F9.5°C 70% 3.0 mph N4.8 kmh N 6.0 mph9.7 kmh 30.01 in1016.3 mb 0.00 in0.0 mm 0.00 in0.0 mm 0.00 in0.0 mm
01:00 AM 58.8°F14.9°C 49.1°F9.5°C 70% 1.0 mph N1.6 kmh N 2.0 mph3.2 kmh 30.01 in1016.3 mb 0.00 in0.0 mm 0.00 in0.0 mm 0.00 in0.0 mm
01:05 AM 58.7°F14.8°C 49.0°F9.4°C 70% 2.0 mph N3.2 kmh N 4.0 mph6.4 kmh 30.01 in1016.3 mb 0.00 in0.0 mm 0.00 in0.0 mm 0.00 in0.0 mm
01:10 AM 58.6°F14.8°C 48.9°F9.4°C 70% 2.0 mph N3.2 kmh N 4.0 mph6.4 kmh 30.00 in1015.9 mb 0.00 in0.0 mm 0.00 in0.0 mm 0.00 in0.0 mm
01:15 AM 58.5°F14.7°C 49.1°F9.5°C 71% 1.0 mph N1.6 kmh N 1.0 mph1.6 kmh 30.00 in1015.9 mb 0.00 in0.0 mm 0.00 in0.0 mm 0.00 in0.0 mm
01:20 AM 58.4°F14.7°C 49.1°F9.5°C 71% Calm Calm 3.0 mph4.8 kmh 30.00 in1015.9 mb 0.00 in0.0 mm 0.00 in0.0 mm 0.00 in0.0 mm
01:25 AM 58.1°F14.5°C 49.1°F9.5°C 72% 2.0 mph N3.2 kmh N 3.0 mph4.8 kmh 30.00 in1015.9 mb 0.00 in0.0 mm 0.00 in0.0 mm 0.00 in0.0 mm
01:30 AM 57.9°F14.4°C 48.9°F9.4°C 72% 3.0 mph N4.8 kmh N 4.0 mph6.4 kmh 30.00 in1015.9 mb 0.00 in0.0 mm 0.00 in0.0 mm 0.00 in0.0 mm
01:35 AM 57.7°F14.3°C 48.8°F9.3°C 72% Calm Calm 4.0 mph6.4 kmh 30.00 in1015.9 mb 0.00 in0.0 mm 0.00 in0.0 mm 0.00 in0.0 mm
01:40 AM 57.5°F14.2°C 48.9°F9.4°C 73% Calm Calm 4.0 mph6.4 kmh 30.00 in1015.9 mb 0.00 in0.0 mm 0.00 in0.0 mm 0.00 in0.0 mm
01:45 AM 57.3°F14.1°C 48.7°F9.3°C 73% Calm Calm -- 30.00 in1015.9 mb 0.00 in0.0 mm 0.00 in0.0 mm 0.00 in0.0 mm
01:50 AM 57.1°F13.9°C 48.5°F9.2°C 73% Calm Calm -- 30.00 in1015.9 mb 0.00 in0.0 mm 0.00 in0.0 mm 0.00 in0.0 mm
01:55 AM 56.9°F13.8°C 48.7°F9.3°C 74% 1.0 mph N1.6 kmh N 2.0 mph3.2 kmh 30.00 in1015.9 mb 0.00 in0.0 mm 0.00 in0.0 mm 0.00 in0.0 mm
02:00 AM 56.7°F13.7°C 48.9°F9.4°C 75% 2.0 mph N3.2 kmh N 3.0 mph4.8 kmh 30.00 in1015.9 mb 0.00 in0.0 mm 0.00 in0.0 mm 0.00 in0.0 mm
02:05 AM 56.6°F13.7°C 48.8°F9.3°C 75% 1.0 mph N1.6 kmh N 3.0 mph4.8 kmh 30.00 in1015.9 mb 0.00 in0.0 mm 0.00 in0.0 mm 0.00 in0.0 mm
02:10 AM 56.5°F13.6°C 48.7°F9.3°C 75% Calm Calm 3.0 mph4.8 kmh 30.00 in1015.9 mb 0.00 in0.0 mm 0.00 in0.0 mm 0.00 in0.0 mm
02:15 AM 56.4°F13.6°C 48.9°F9.4°C 76% 1.0 mph N1.6 kmh N 1.0 mph1.6 kmh 30.00 in1015.9 mb 0.00 in0.0 mm 0.00 in0.0 mm 0.00 in0.0 mm
02:20 AM 56.2°F13.4°C 48.8°F9.3°C 76% Calm Calm 1.0 mph1.6 kmh 30.00 in1015.9 mb 0.00 in0.0 mm 0.00 in0.0 mm 0.00 in0.0 mm
02:25 AM 56.0°F13.3°C 48.9°F9.4°C 77% Calm Calm 1.0 mph1.6 kmh 30.00 in1015.9 mb 0.00 in0.0 mm 0.00 in0.0 mm 0.00 in0.0 mm
02:30 AM 55.8°F13.2°C 48.7°F9.3°C 77% Calm Calm -- 30.00 in1015.9 mb 0.00 in0.0 mm 0.00 in0.0 mm 0.00 in0.0 mm
02:35 AM 55.7°F13.2°C 49.0°F9.4°C 78% Calm Calm -- 30.00 in1015.9 mb 0.00 in0.0 mm 0.00 in0.0 mm 0.00 in0.0 mm
02:40 AM 55.5°F13.1°C 48.8°F9.3°C 78% Calm Calm -- 29.99 in1015.6 mb 0.00 in0.0 mm 0.00 in0.0 mm 0.00 in0.0 mm
02:45 AM 55.4°F13.0°C 49.0°F9.4°C 79% Calm Calm 2.0 mph3.2 kmh 29.99 in1015.6 mb 0.00 in0.0 mm 0.00 in0.0 mm 0.00 in0.0 mm
02:50 AM 55.3°F12.9°C 48.9°F9.4°C 79% 1.0 mph N1.6 kmh N 2.0 mph3.2 kmh 29.99 in1015.6 mb 0.00 in0.0 mm 0.00 in0.0 mm 0.00 in0.0 mm
02:55 AM 55.1°F12.8°C 49.1°F9.5°C 80% 2.0 mph N3.2 kmh N 3.0 mph4.8 kmh 29.99 in1015.6 mb 0.00 in0.0 mm 0.00 in0.0 mm 0.00 in0.0 mm
03:00 AM 55.1°F12.8°C 49.1°F9.5°C 80% 3.0 mph N4.8 kmh N 4.0 mph6.4 kmh 29.99 in1015.6 mb 0.00 in0.0 mm 0.00 in0.0 mm 0.00 in0.0 mm
03:05 AM 55.3°F12.9°C 48.9°F9.4°C 79% 2.0 mph N3.2 kmh N 4.0 mph6.4 kmh 29.99 in1015.6 mb 0.00 in0.0 mm 0.00 in0.0 mm 0.00 in0.0 mm
03:10 AM 55.4°F13.0°C 49.0°F9.4°C 79% 2.0 mph N3.2 kmh N 5.0 mph8.0 kmh 29.99 in1015.6 mb 0.00 in0.0 mm 0.00 in0.0 mm 0.00 in0.0 mm
03:15 AM 55.7°F13.2°C 48.6°F9.2°C 77% 2.0 mph N3.2 kmh N 4.0 mph6.4 kmh 29.99 in1015.6 mb 0.00 in0.0 mm 0.00 in0.0 mm 0.00 in0.0 mm
03:20 AM 55.9°F13.3°C 48.8°F9.3°C 77% 2.0 mph N3.2 kmh N 4.0 mph6.4 kmh 29.98 in1015.2 mb 0.00 in0.0 mm 0.00 in0.0 mm 0.00 in0.0 mm
03:25 AM 56.2°F13.4°C 48.4°F9.1°C 75% 2.0 mph N3.2 kmh N 4.0 mph6.4 kmh 29.98 in1015.2 mb 0.00 in0.0 mm 0.00 in0.0 mm 0.00 in0.0 mm
03:30 AM 56.4°F13.6°C 48.6°F9.2°C 75% 2.0 mph N3.2 kmh N 3.0 mph4.8 kmh 29.98 in1015.2 mb 0.00 in0.0 mm 0.00 in0.0 mm 0.00 in0.0 mm
03:35 AM 56.5°F13.6°C 48.3°F9.1°C 74% 2.0 mph N3.2 kmh N 4.0 mph6.4 kmh 29.98 in1015.2 mb 0.00 in0.0 mm 0.00 in0.0 mm 0.00 in0.0 mm
03:40 AM 56.7°F13.7°C 48.5°F9.2°C 74% 2.0 mph N3.2 kmh N 4.0 mph6.4 kmh 29.98 in1015.2 mb 0.00 in0.0 mm 0.00 in0.0 mm 0.00 in0.0 mm
03:45 AM 56.8°F13.8°C 48.6°F9.2°C 74% 2.0 mph N3.2 kmh N 3.0 mph4.8 kmh 29.98 in1015.2 mb 0.00 in0.0 mm 0.00 in0.0 mm 0.00 in0.0 mm
03:50 AM 56.9°F13.8°C 49.1°F9.5°C 75% 3.0 mph N4.8 kmh N 3.0 mph4.8 kmh 29.98 in1015.2 mb 0.00 in0.0 mm 0.00 in0.0 mm 0.00 in0.0 mm
03:55 AM 56.9°F13.8°C 49.1°F9.5°C 75% 3.0 mph N4.8 kmh N 3.0 mph4.8 kmh 29.98 in1015.2 mb 0.00 in0.0 mm 0.00 in0.0 mm 0.00 in0.0 mm
04:00 AM 56.8°F13.8°C 49.0°F9.4°C 75% 2.0 mph N3.2 kmh N 2.0 mph3.2 kmh 29.98 in1015.2 mb 0.00 in0.0 mm 0.00 in0.0 mm 0.00 in0.0 mm
04:05 AM 56.8°F13.8°C 48.6°F9.2°C 74% 2.0 mph N3.2 kmh N 4.0 mph6.4 kmh 29.98 in1015.2 mb 0.00 in0.0 mm 0.00 in0.0 mm 0.00 in0.0 mm
04:10 AM 56.9°F13.8°C 48.7°F9.3°C 74% 2.0 mph N3.2 kmh N 4.0 mph6.4 kmh 29.99 in1015.6 mb 0.00 in0.0 mm 0.00 in0.0 mm 0.00 in0.0 mm
04:15 AM 57.0°F13.9°C 48.4°F9.1°C 73% 3.0 mph N4.8 kmh N 5.0 mph8.0 kmh 29.98 in1015.2 mb 0.00 in0.0 mm 0.00 in0.0 mm 0.00 in0.0 mm
04:20 AM 57.2°F14.0°C 48.6°F9.2°C 73% 4.0 mph N6.4 kmh N 5.0 mph8.0 kmh 29.98 in1015.2 mb 0.00 in0.0 mm 0.00 in0.0 mm 0.00 in0.0 mm
04:25 AM 57.4°F14.1°C 48.8°F9.3°C 73% 2.0 mph N3.2 kmh N 5.0 mph8.0 kmh 29.98 in1015.2 mb 0.00 in0.0 mm 0.00 in0.0 mm 0.00 in0.0 mm
04:30 AM 57.4°F14.1°C 48.8°F9.3°C 73% 4.0 mph N6.4 kmh N 5.0 mph8.0 kmh 29.98 in1015.2 mb 0.00 in0.0 mm 0.00 in0.0 mm 0.00 in0.0 mm
04:35 AM 57.4°F14.1°C 48.8°F9.3°C 73% 3.0 mph N4.8 kmh N 5.0 mph8.0 kmh 29.98 in1015.2 mb 0.00 in0.0 mm 0.00 in0.0 mm 0.00 in0.0 mm
04:40 AM 57.3°F14.1°C 49.1°F9.5°C 74% 3.0 mph N4.8 kmh N 5.0 mph8.0 kmh 29.98 in1015.2 mb 0.00 in0.0 mm 0.00 in0.0 mm 0.00 in0.0 mm
04:45 AM 57.3°F14.1°C 49.1°F9.5°C 74% 2.0 mph N3.2 kmh N 3.0 mph4.8 kmh 29.98 in1015.2 mb 0.00 in0.0 mm 0.00 in0.0 mm 0.00 in0.0 mm
04:50 AM 57.3°F14.1°C 49.1°F9.5°C 74% 2.0 mph N3.2 kmh N 5.0 mph8.0 kmh 29.98 in1015.2 mb 0.00 in0.0 mm 0.00 in0.0 mm 0.00 in0.0 mm
04:55 AM 57.2°F14.0°C 49.0°F9.4°C 74% 3.0 mph N4.8 kmh N 5.0 mph8.0 kmh 29.98 in1015.2 mb 0.00 in0.0 mm 0.00 in0.0 mm 0.00 in0.0 mm
05:00 AM 57.1°F13.9°C 48.5°F9.2°C 73% 3.0 mph N4.8 kmh N 4.0 mph6.4 kmh 29.98 in1015.2 mb 0.00 in0.0 mm 0.00 in0.0 mm 0.00 in0.0 mm
05:05 AM 57.1°F13.9°C 48.9°F9.4°C 74% 3.0 mph N4.8 kmh N 4.0 mph6.4 kmh 29.98 in1015.2 mb 0.00 in0.0 mm 0.00 in0.0 mm 0.00 in0.0 mm
05:10 AM 57.2°F14.0°C 49.0°F9.4°C 74% 3.0 mph N4.8 kmh N 7.0 mph11.3 kmh 29.99 in1015.6 mb 0.00 in0.0 mm 0.00 in0.0 mm 0.00 in0.0 mm
05:15 AM 57.3°F14.1°C 48.4°F9.1°C 72% 4.0 mph N6.4 kmh N 7.0 mph11.3 kmh 29.99 in1015.6 mb 0.00 in0.0 mm 0.00 in0.0 mm 0.00 in0.0 mm
05:20 AM 57.5°F14.2°C 48.6°F9.2°C 72% 4.0 mph N6.4 kmh N 7.0 mph11.3 kmh 29.99 in1015.6 mb 0.00 in0.0 mm 0.00 in0.0 mm 0.00 in0.0 mm
05:25 AM 57.7°F14.3°C 48.8°F9.3°C 72% 7.0 mph N11.3 kmh N 7.0 mph11.3 kmh 29.99 in1015.6 mb 0.00 in0.0 mm 0.00 in0.0 mm 0.00 in0.0 mm
05:30 AM 58.0°F14.4°C 48.7°F9.3°C 71% 4.0 mph N6.4 kmh N 5.0 mph8.0 kmh 29.99 in1015.6 mb 0.00 in0.0 mm 0.00 in0.0 mm 0.00 in0.0 mm
05:35 AM 58.3°F14.6°C 49.0°F9.4°C 71% 2.0 mph N3.2 kmh N 6.0 mph9.7 kmh 29.99 in1015.6 mb 0.00 in0.0 mm 0.00 in0.0 mm 0.00 in0.0 mm
05:40 AM 58.6°F14.8°C 48.9°F9.4°C 70% 4.0 mph N6.4 kmh N 9.0 mph14.5 kmh 29.99 in1015.6 mb 0.00 in0.0 mm 0.00 in0.0 mm 0.00 in0.0 mm
05:45 AM 59.1°F15.1°C 48.6°F9.2°C 68% 9.0 mph N14.5 kmh N 9.0 mph14.5 kmh 29.99 in1015.6 mb 0.00 in0.0 mm 0.00 in0.0 mm 0.00 in0.0 mm
05:50 AM 59.6°F15.3°C 48.6°F9.2°C 67% 7.0 mph N11.3 kmh N 9.0 mph14.5 kmh 29.99 in1015.6 mb 0.00 in0.0 mm 0.00 in0.0 mm 0.00 in0.0 mm
05:55 AM 60.0°F15.6°C 49.0°F9.4°C 67% 5.0 mph N8.0 kmh N 9.0 mph14.5 kmh 29.99 in1015.6 mb 0.00 in0.0 mm 0.00 in0.0 mm 0.00 in0.0 mm
06:00 AM 60.3°F15.7°C 48.9°F9.4°C 66% 4.0 mph N6.4 kmh N 4.0 mph6.4 kmh 29.99 in1015.6 mb 0.00 in0.0 mm 0.00 in0.0 mm 0.00 in0.0 mm
06:05 AM 60.6°F15.9°C 49.2°F9.6°C 66% 4.0 mph N6.4 kmh N 7.0 mph11.3 kmh 29.99 in1015.6 mb 0.00 in0.0 mm 0.00 in0.0 mm 0.00 in0.0 mm
06:10 AM 60.8°F16.0°C 49.4°F9.7°C 66% 2.0 mph N3.2 kmh N 7.0 mph11.3 kmh 29.99 in1015.6 mb 0.00 in0.0 mm 0.00 in0.0 mm 0.00 in0.0 mm
06:15 AM 61.1°F16.2°C 49.7°F9.8°C 66% 5.0 mph N8.0 kmh N 5.0 mph8.0 kmh 29.99 in1015.6 mb 0.00 in0.0 mm 0.00 in0.0 mm 0.00 in0.0 mm
06:20 AM 61.4°F16.3°C 49.1°F9.5°C 64% 2.0 mph N3.2 kmh N 6.0 mph9.7 kmh 29.99 in1015.6 mb 0.00 in0.0 mm 0.00 in0.0 mm 0.00 in0.0 mm
06:25 AM 61.8°F16.6°C 49.1°F9.5°C 63% 3.0 mph N4.8 kmh N 6.0 mph9.7 kmh 30.00 in1015.9 mb 0.00 in0.0 mm 0.00 in0.0 mm 0.00 in0.0 mm
06:30 AM 62.3°F16.8°C 49.6°F9.8°C 63% 1.0 mph N1.6 kmh N 2.0 mph3.2 kmh 29.99 in1015.6 mb 0.00 in0.0 mm 0.00 in0.0 mm 0.00 in0.0 mm
06:35 AM 62.7°F17.1°C 49.5°F9.7°C 62% 5.0 mph N8.0 kmh N 7.0 mph11.3 kmh 30.00 in1015.9 mb 0.00 in0.0 mm 0.00 in0.0 mm 0.00 in0.0 mm
06:40 AM 63.0°F17.2°C 50.2°F10.1°C 63% 6.0 mph N9.7 kmh N 7.0 mph11.3 kmh 30.00 in1015.9 mb 0.00 in0.0 mm 0.00 in0.0 mm 0.00 in0.0 mm
06:45 AM 63.1°F17.3°C 49.9°F9.9°C 62% 5.0 mph N8.0 kmh N 8.0 mph12.9 kmh 30.00 in1015.9 mb 0.00 in0.0 mm 0.00 in0.0 mm 0.00 in0.0 mm
06:50 AM 63.2°F17.3°C 50.4°F10.2°C 63% 3.0 mph N4.8 kmh N 8.0 mph12.9 kmh 30.00 in1015.9 mb 0.00 in0.0 mm 0.00 in0.0 mm 0.00 in0.0 mm
06:55 AM 63.4°F17.4°C 50.2°F10.1°C 62% 5.0 mph N8.0 kmh N 11.0 mph17.7 kmh 30.01 in1016.3 mb 0.00 in0.0 mm 0.00 in0.0 mm 0.00 in0.0 mm
07:00 AM 63.6°F17.6°C 50.8°F10.4°C 63% 7.0 mph N11.3 kmh N 8.0 mph12.9 kmh 30.00 in1015.9 mb 0.00 in0.0 mm 0.00 in0.0 mm 0.00 in0.0 mm
07:05 AM 63.8°F17.7°C 51.0°F10.6°C 63% 6.0 mph N9.7 kmh N 8.0 mph12.9 kmh 30.00 in1015.9 mb 0.00 in0.0 mm 0.00 in0.0 mm 0.00 in0.0 mm
07:10 AM 64.0°F17.8°C 51.2°F10.7°C 63% 7.0 mph N11.3 kmh N 9.0 mph14.5 kmh 30.00 in1015.9 mb 0.00 in0.0 mm 0.00 in0.0 mm 0.00 in0.0 mm
07:15 AM 64.1°F17.8°C 51.3°F10.7°C 63% 4.0 mph N6.4 kmh N 4.0 mph6.4 kmh 30.00 in1015.9 mb 0.00 in0.0 mm 0.00 in0.0 mm 0.00 in0.0 mm
07:20 AM 64.3°F17.9°C 51.9°F11.1°C 64% 3.0 mph N4.8 kmh N 7.0 mph11.3 kmh 29.99 in1015.6 mb 0.00 in0.0 mm 0.00 in0.0 mm 0.00 in0.0 mm
07:25 AM 64.6°F18.1°C 51.3°F10.7°C 62% 4.0 mph N6.4 kmh N 7.0 mph11.3 kmh 29.99 in1015.6 mb 0.00 in0.0 mm 0.00 in0.0 mm 0.00 in0.0 mm
07:30 AM 64.8°F18.2°C 51.5°F10.8°C 62% 6.0 mph N9.7 kmh N 8.0 mph12.9 kmh 29.99 in1015.6 mb 0.00 in0.0 mm 0.00 in0.0 mm 0.00 in0.0 mm
07:35 AM 65.0°F18.3°C 50.8°F10.4°C 60% 4.0 mph N6.4 kmh N 8.0 mph12.9 kmh 29.99 in1015.6 mb 0.00 in0.0 mm 0.00 in0.0 mm 0.00 in0.0 mm
07:40 AM 65.1°F18.4°C 50.4°F10.2°C 59% 3.0 mph N4.8 kmh N 8.0 mph12.9 kmh 29.99 in1015.6 mb 0.00 in0.0 mm 0.00 in0.0 mm 0.00 in0.0 mm
07:45 AM 65.3°F18.5°C 50.6°F10.3°C 59% 9.0 mph N14.5 kmh N 9.0 mph14.5 kmh 29.99 in1015.6 mb 0.00 in0.0 mm 0.00 in0.0 mm 0.00 in0.0 mm
07:50 AM 65.5°F18.6°C 50.4°F10.2°C 58% 2.0 mph N3.2 kmh N 9.0 mph14.5 kmh 29.99 in1015.6 mb 0.00 in0.0 mm 0.00 in0.0 mm 0.00 in0.0 mm
07:55 AM 65.8°F18.8°C 50.2°F10.1°C 57% 4.0 mph N6.4 kmh N 11.0 mph17.7 kmh 29.99 in1015.6 mb 0.00 in0.0 mm 0.00 in0.0 mm 0.00 in0.0 mm
08:00 AM 66.3°F19.1°C 50.2°F10.1°C 56% 4.0 mph N6.4 kmh N 4.0 mph6.4 kmh 29.99 in1015.6 mb 0.00 in0.0 mm 0.00 in0.0 mm 0.00 in0.0 mm
08:05 AM 66.9°F19.4°C 50.2°F10.1°C 55% 8.0 mph N12.9 kmh N 9.0 mph14.5 kmh 29.98 in1015.2 mb 0.00 in0.0 mm 0.00 in0.0 mm 0.00 in0.0 mm
08:10 AM 67.2°F19.6°C 51.0°F10.6°C 56% 7.0 mph N11.3 kmh N 10.0 mph16.1 kmh 29.99 in1015.6 mb 0.00 in0.0 mm 0.00 in0.0 mm 0.00 in0.0 mm
08:15 AM 67.5°F19.7°C 50.8°F10.4°C 55% 3.0 mph N4.8 kmh N 5.0 mph8.0 kmh 29.99 in1015.6 mb 0.00 in0.0 mm 0.00 in0.0 mm 0.00 in0.0 mm
08:20 AM 67.6°F19.8°C 50.4°F10.2°C 54% 6.0 mph N9.7 kmh N 11.0 mph17.7 kmh 29.98 in1015.2 mb 0.00 in0.0 mm 0.00 in0.0 mm 0.00 in0.0 mm
08:25 AM 67.8°F19.9°C 50.6°F10.3°C 54% 2.0 mph N3.2 kmh N 11.0 mph17.7 kmh 29.98 in1015.2 mb 0.00 in0.0 mm 0.00 in0.0 mm 0.00 in0.0 mm
08:30 AM 68.0°F20.0°C 50.3°F10.2°C 53% 4.0 mph N6.4 kmh N 5.0 mph8.0 kmh 29.98 in1015.2 mb 0.00 in0.0 mm 0.00 in0.0 mm 0.00 in0.0 mm
08:35 AM 68.3°F20.2°C 50.0°F10.0°C 52% 10.0 mph N16.1 kmh N 10.0 mph16.1 kmh 29.98 in1015.2 mb 0.00 in0.0 mm 0.00 in0.0 mm 0.00 in0.0 mm
08:40 AM 68.5°F20.3°C 48.6°F9.2°C 49% 5.0 mph N8.0 kmh N 11.0 mph17.7 kmh 29.98 in1015.2 mb 0.00 in0.0 mm 0.00 in0.0 mm 0.00 in0.0 mm
08:45 AM 68.6°F20.3°C 49.8°F9.9°C 51% 4.0 mph N6.4 kmh N 7.0 mph11.3 kmh 29.98 in1015.2 mb 0.00 in0.0 mm 0.00 in0.0 mm 0.00 in0.0 mm
08:50 AM 68.7°F20.4°C 50.4°F10.2°C 52% 4.0 mph N6.4 kmh N 10.0 mph16.1 kmh 29.98 in1015.2 mb 0.00 in0.0 mm 0.00 in0.0 mm 0.00 in0.0 mm
08:55 AM 68.7°F20.4°C 51.4°F10.8°C 54% 8.0 mph N12.9 kmh N 10.0 mph16.1 kmh 29.98 in1015.2 mb 0.00 in0.0 mm 0.00 in0.0 mm 0.00 in0.0 mm
09:00 AM 69.4°F20.8°C 52.1°F11.2°C 54% 5.0 mph N8.0 kmh N 5.0 mph8.0 kmh 29.97 in1014.9 mb 0.00 in0.0 mm 0.00 in0.0 mm 0.00 in0.0 mm
09:05 AM 69.7°F20.9°C 50.8°F10.4°C 51% 3.0 mph N4.8 kmh N 11.0 mph17.7 kmh 29.97 in1014.9 mb 0.00 in0.0 mm 0.00 in0.0 mm 0.00 in0.0 mm
09:10 AM 70.2°F21.2°C 51.2°F10.7°C 51% 5.0 mph N8.0 kmh N 11.0 mph17.7 kmh 29.97 in1014.9 mb 0.00 in0.0 mm 0.00 in0.0 mm 0.00 in0.0 mm
09:15 AM 70.5°F21.4°C 47.0°F8.3°C 43% 8.0 mph N12.9 kmh N 9.0 mph14.5 kmh 29.97 in1014.9 mb 0.00 in0.0 mm 0.00 in0.0 mm 0.00 in0.0 mm
09:20 AM 70.5°F21.4°C 48.8°F9.3°C 46% 9.0 mph N14.5 kmh N 11.0 mph17.7 kmh 29.97 in1014.9 mb 0.00 in0.0 mm 0.00 in0.0 mm 0.00 in0.0 mm
09:25 AM 70.8°F21.6°C 48.4°F9.1°C 45% 1.0 mph N1.6 kmh N 13.0 mph20.9 kmh 29.97 in1014.9 mb 0.00 in0.0 mm 0.00 in0.0 mm 0.00 in0.0 mm
09:30 AM 71.2°F21.8°C 48.2°F9.0°C 44% 10.0 mph N16.1 kmh N 10.0 mph16.1 kmh 29.97 in1014.9 mb 0.00 in0.0 mm 0.00 in0.0 mm 0.00 in0.0 mm
09:35 AM 71.1°F21.7°C 49.3°F9.6°C 46% 8.0 mph N12.9 kmh N 10.0 mph16.1 kmh 29.97 in1014.9 mb 0.00 in0.0 mm 0.00 in0.0 mm 0.00 in0.0 mm
09:40 AM 71.3°F21.8°C 48.9°F9.4°C 45% 5.0 mph N8.0 kmh N 11.0 mph17.7 kmh 29.97 in1014.9 mb 0.00 in0.0 mm 0.00 in0.0 mm 0.00 in0.0 mm
09:45 AM 71.3°F21.8°C 48.9°F9.4°C 45% 4.0 mph N6.4 kmh N 4.0 mph6.4 kmh 29.96 in1014.6 mb 0.00 in0.0 mm 0.00 in0.0 mm 0.00 in0.0 mm
09:50 AM 71.9°F22.2°C 47.6°F8.7°C 42% 6.0 mph N9.7 kmh N 11.0 mph17.7 kmh 29.96 in1014.6 mb 0.00 in0.0 mm 0.00 in0.0 mm 0.00 in0.0 mm
09:55 AM 72.3°F22.4°C 48.6°F9.2°C 43% 3.0 mph N4.8 kmh N 13.0 mph20.9 kmh 29.96 in1014.6 mb 0.00 in0.0 mm 0.00 in0.0 mm 0.00 in0.0 mm
10:00 AM 72.4°F22.4°C 48.0°F8.9°C 42% 5.0 mph N8.0 kmh N 6.0 mph9.7 kmh 29.96 in1014.6 mb 0.00 in0.0 mm 0.00 in0.0 mm 0.00 in0.0 mm
10:05 AM 72.5°F22.5°C 47.5°F8.6°C 41% 5.0 mph N8.0 kmh N 10.0 mph16.1 kmh 29.96 in1014.6 mb 0.00 in0.0 mm 0.00 in0.0 mm 0.00 in0.0 mm
10:10 AM 72.8°F22.7°C 47.8°F8.8°C 41% 3.0 mph N4.8 kmh N 10.0 mph16.1 kmh 29.96 in1014.6 mb 0.00 in0.0 mm 0.00 in0.0 mm 0.00 in0.0 mm
10:15 AM 73.4°F23.0°C 47.6°F8.7°C 40% 5.0 mph N8.0 kmh N 8.0 mph12.9 kmh 29.95 in1014.2 mb 0.00 in0.0 mm 0.00 in0.0 mm 0.00 in0.0 mm
10:20 AM 73.7°F23.2°C 46.5°F8.1°C 38% 1.0 mph N1.6 kmh N 8.0 mph12.9 kmh 29.95 in1014.2 mb 0.00 in0.0 mm 0.00 in0.0 mm 0.00 in0.0 mm
10:25 AM 73.6°F23.1°C 46.5°F8.1°C 38% 5.0 mph N8.0 kmh N 8.0 mph12.9 kmh 29.95 in1014.2 mb 0.00 in0.0 mm 0.00 in0.0 mm 0.00 in0.0 mm
10:30 AM 73.5°F23.1°C 48.4°F9.1°C 41% 2.0 mph N3.2 kmh N 4.0 mph6.4 kmh 29.95 in1014.2 mb 0.00 in0.0 mm 0.00 in0.0 mm 0.00 in0.0 mm
10:35 AM 73.9°F23.3°C 45.3°F7.4°C 36% 3.0 mph N4.8 kmh N 8.0 mph12.9 kmh 29.95 in1014.2 mb 0.00 in0.0 mm 0.00 in0.0 mm 0.00 in0.0 mm
10:40 AM 74.3°F23.5°C 46.4°F8.0°C 37% 4.0 mph N6.4 kmh N 10.0 mph16.1 kmh 29.94 in1013.9 mb 0.00 in0.0 mm 0.00 in0.0 mm 0.00 in0.0 mm
10:45 AM 74.3°F23.5°C 47.8°F8.8°C 39% 4.0 mph N6.4 kmh N 4.0 mph6.4 kmh 29.94 in1013.9 mb 0.00 in0.0 mm 0.00 in0.0 mm 0.00 in0.0 mm
10:50 AM 74.5°F23.6°C 47.9°F8.8°C 39% 3.0 mph N4.8 kmh N 12.0 mph19.3 kmh 29.94 in1013.9 mb 0.00 in0.0 mm 0.00 in0.0 mm 0.00 in0.0 mm
10:55 AM 74.5°F23.6°C 46.6°F8.1°C 37% 5.0 mph N8.0 kmh N 12.0 mph19.3 kmh 29.94 in1013.9 mb 0.00 in0.0 mm 0.00 in0.0 mm 0.00 in0.0 mm
11:00 AM 73.9°F23.3°C 46.0°F7.8°C 37% 3.0 mph N4.8 kmh N 3.0 mph4.8 kmh 29.94 in1013.9 mb 0.00 in0.0 mm 0.00 in0.0 mm 0.00 in0.0 mm
11:05 AM 73.4°F23.0°C 46.3°F7.9°C 38% 5.0 mph N8.0 kmh N 9.0 mph14.5 kmh 29.94 in1013.9 mb 0.00 in0.0 mm 0.00 in0.0 mm 0.00 in0.0 mm
11:10 AM 72.9°F22.7°C 46.5°F8.1°C 39% 1.0 mph N1.6 kmh N 9.0 mph14.5 kmh 29.94 in1013.9 mb 0.00 in0.0 mm 0.00 in0.0 mm 0.00 in0.0 mm
11:15 AM 72.7°F22.6°C 47.0°F8.3°C 40% 4.0 mph N6.4 kmh N 5.0 mph8.0 kmh 29.94 in1013.9 mb 0.00 in0.0 mm 0.00 in0.0 mm 0.00 in0.0 mm
11:20 AM 72.6°F22.6°C 46.9°F8.3°C 40% 2.0 mph N3.2 kmh N 6.0 mph9.7 kmh 29.93 in1013.5 mb 0.00 in0.0 mm 0.00 in0.0 mm 0.00 in0.0 mm
11:25 AM 72.6°F22.6°C 46.9°F8.3°C 40% 6.0 mph N9.7 kmh N 6.0 mph9.7 kmh 29.93 in1013.5 mb 0.00 in0.0 mm 0.00 in0.0 mm 0.00 in0.0 mm
11:30 AM 72.4°F22.4°C 46.1°F7.8°C 39% 8.0 mph N12.9 kmh N 9.0 mph14.5 kmh 29.93 in1013.5 mb 0.00 in0.0 mm 0.00 in0.0 mm 0.00 in0.0 mm
11:35 AM 72.9°F22.7°C 48.5°F9.2°C 42% 1.0 mph N1.6 kmh N 9.0 mph14.5 kmh 29.93 in1013.5 mb 0.00 in0.0 mm 0.00 in0.0 mm 0.00 in0.0 mm
11:40 AM 74.0°F23.3°C 47.5°F8.6°C 39% 4.0 mph N6.4 kmh N 9.0 mph14.5 kmh 29.93 in1013.5 mb 0.00 in0.0 mm 0.00 in0.0 mm 0.00 in0.0 mm
11:45 AM 74.6°F23.7°C 44.4°F6.9°C 34% 4.0 mph N6.4 kmh N 4.0 mph6.4 kmh 29.93 in1013.5 mb 0.00 in0.0 mm 0.00 in0.0 mm 0.00 in0.0 mm
11:50 AM 74.5°F23.6°C 45.1°F7.3°C 35% 2.0 mph N3.2 kmh N 8.0 mph12.9 kmh 29.92 in1013.2 mb 0.00 in0.0 mm 0.00 in0.0 mm 0.00 in0.0 mm
11:55 AM 74.6°F23.7°C 45.9°F7.7°C 36% 5.0 mph N8.0 kmh N 10.0 mph16.1 kmh 29.93 in1013.5 mb 0.00 in0.0 mm 0.00 in0.0 mm 0.00 in0.0 mm
12:00 PM 74.3°F23.5°C 47.1°F8.4°C 38% 3.0 mph N4.8 kmh N 5.0 mph8.0 kmh 29.92 in1013.2 mb 0.00 in0.0 mm 0.00 in0.0 mm 0.00 in0.0 mm
12:05 PM 73.9°F23.3°C 46.0°F7.8°C 37% 3.0 mph N4.8 kmh N 10.0 mph16.1 kmh 29.92 in1013.2 mb 0.00 in0.0 mm 0.00 in0.0 mm 0.00 in0.0 mm
12:10 PM 73.7°F23.2°C 46.5°F8.1°C 38% 6.0 mph N9.7 kmh N 10.0 mph16.1 kmh 29.92 in1013.2 mb 0.00 in0.0 mm 0.00 in0.0 mm 0.00 in0.0 mm
12:15 PM 73.7°F23.2°C 47.2°F8.4°C 39% 4.0 mph N6.4 kmh N 4.0 mph6.4 kmh 29.92 in1013.2 mb 0.00 in0.0 mm 0.00 in0.0 mm 0.00 in0.0 mm
12:20 PM 73.9°F23.3°C 47.4°F8.6°C 39% 6.0 mph N9.7 kmh N 8.0 mph12.9 kmh 29.92 in1013.2 mb 0.00 in0.0 mm 0.00 in0.0 mm 0.00 in0.0 mm
12:25 PM 74.4°F23.6°C 45.7°F7.6°C 36% 1.0 mph N1.6 kmh N 12.0 mph19.3 kmh 29.92 in1013.2 mb 0.00 in0.0 mm 0.00 in0.0 mm 0.00 in0.0 mm
12:30 PM 75.1°F23.9°C 47.1°F8.4°C 37% 4.0 mph N6.4 kmh N 4.0 mph6.4 kmh 29.91 in1012.9 mb 0.00 in0.0 mm 0.00 in0.0 mm 0.00 in0.0 mm
12:35 PM 75.5°F24.2°C 47.4°F8.6°C 37% 5.0 mph N8.0 kmh N 13.0 mph20.9 kmh 29.91 in1012.9 mb 0.00 in0.0 mm 0.00 in0.0 mm 0.00 in0.0 mm
12:40 PM 75.8°F24.3°C 47.7°F8.7°C 37% 7.0 mph N11.3 kmh N 13.0 mph20.9 kmh 29.91 in1012.9 mb 0.00 in0.0 mm 0.00 in0.0 mm 0.00 in0.0 mm
12:45 PM 75.3°F24.1°C 47.3°F8.5°C 37% 8.0 mph N12.9 kmh N 9.0 mph14.5 kmh 29.91 in1012.9 mb 0.00 in0.0 mm 0.00 in0.0 mm 0.00 in0.0 mm
12:50 PM 74.8°F23.8°C 43.8°F6.6°C 33% 5.0 mph N8.0 kmh N 13.0 mph20.9 kmh 29.91 in1012.9 mb 0.00 in0.0 mm 0.00 in0.0 mm 0.00 in0.0 mm
12:55 PM 74.7°F23.7°C 43.7°F6.5°C 33% 6.0 mph N9.7 kmh N 13.0 mph20.9 kmh 29.91 in1012.9 mb 0.00 in0.0 mm 0.00 in0.0 mm 0.00 in0.0 mm
01:00 PM 74.4°F23.6°C 46.5°F8.1°C 37% 3.0 mph N4.8 kmh N 3.0 mph4.8 kmh 29.91 in1012.9 mb 0.00 in0.0 mm 0.00 in0.0 mm 0.00 in0.0 mm
01:05 PM 74.3°F23.5°C 47.1°F8.4°C 38% 1.0 mph N1.6 kmh N 11.0 mph17.7 kmh 29.91 in1012.9 mb 0.00 in0.0 mm 0.00 in0.0 mm 0.00 in0.0 mm
01:10 PM 74.2°F23.4°C 45.6°F7.6°C 36% 7.0 mph N11.3 kmh N 13.0 mph20.9 kmh 29.91 in1012.9 mb 0.00 in0.0 mm 0.00 in0.0 mm 0.00 in0.0 mm
01:15 PM 73.8°F23.2°C 45.2°F7.3°C 36% 3.0 mph N4.8 kmh N 6.0 mph9.7 kmh 29.91 in1012.9 mb 0.00 in0.0 mm 0.00 in0.0 mm 0.00 in0.0 mm
01:20 PM 73.9°F23.3°C 45.3°F7.4°C 36% 8.0 mph N12.9 kmh N 14.0 mph22.5 kmh 29.91 in1012.9 mb 0.00 in0.0 mm 0.00 in0.0 mm 0.00 in0.0 mm
01:25 PM 74.4°F23.6°C 45.7°F7.6°C 36% 4.0 mph N6.4 kmh N 14.0 mph22.5 kmh 29.91 in1012.9 mb 0.00 in0.0 mm 0.00 in0.0 mm 0.00 in0.0 mm
01:30 PM 75.0°F23.9°C 43.2°F6.2°C 32% 8.0 mph N12.9 kmh N 12.0 mph19.3 kmh 29.91 in1012.9 mb 0.00 in0.0 mm 0.00 in0.0 mm 0.00 in0.0 mm
01:35 PM 75.1°F23.9°C 44.1°F6.7°C 33% 2.0 mph N3.2 kmh N 12.0 mph19.3 kmh 29.91 in1012.9 mb 0.00 in0.0 mm 0.00 in0.0 mm 0.00 in0.0 mm
01:40 PM 75.1°F23.9°C 44.1°F6.7°C 33% 4.0 mph N6.4 kmh N 14.0 mph22.5 kmh 29.91 in1012.9 mb 0.00 in0.0 mm 0.00 in0.0 mm 0.00 in0.0 mm
01:45 PM 75.7°F24.3°C 41.2°F5.1°C 29% 5.0 mph N8.0 kmh N 6.0 mph9.7 kmh 29.90 in1012.5 mb 0.00 in0.0 mm 0.00 in0.0 mm 0.00 in0.0 mm
01:50 PM 76.5°F24.7°C 45.3°F7.4°C 33% 7.0 mph N11.3 kmh N 12.0 mph19.3 kmh 29.90 in1012.5 mb 0.00 in0.0 mm 0.00 in0.0 mm 0.00 in0.0 mm
01:55 PM 76.7°F24.8°C 43.0°F6.1°C 30% 1.0 mph N1.6 kmh N 12.0 mph19.3 kmh 29.90 in1012.5 mb 0.00 in0.0 mm 0.00 in0.0 mm 0.00 in0.0 mm
02:00 PM 76.6°F24.8°C 46.2°F7.9°C 34% 4.0 mph N6.4 kmh N 6.0 mph9.7 kmh 29.91 in1012.9 mb 0.00 in0.0 mm 0.00 in0.0 mm 0.00 in0.0 mm
02:05 PM 76.4°F24.7°C 46.0°F7.8°C 34% 3.0 mph N4.8 kmh N 7.0 mph11.3 kmh 29.90 in1012.5 mb 0.00 in0.0 mm 0.00 in0.0 mm 0.00 in0.0 mm
02:10 PM 76.4°F24.7°C 45.2°F7.3°C 33% 1.0 mph N1.6 kmh N 7.0 mph11.3 kmh 29.90 in1012.5 mb 0.00 in0.0 mm 0.00 in0.0 mm 0.00 in0.0 mm
02:15 PM 76.7°F24.8°C 43.8°F6.6°C 31% 2.0 mph N3.2 kmh N 3.0 mph4.8 kmh 29.90 in1012.5 mb 0.00 in0.0 mm 0.00 in0.0 mm 0.00 in0.0 mm
02:20 PM 76.7°F24.8°C 43.0°F6.1°C 30% Calm Calm 4.0 mph6.4 kmh 29.91 in1012.9 mb 0.00 in0.0 mm 0.00 in0.0 mm 0.00 in0.0 mm
02:25 PM 76.2°F24.6°C 43.4°F6.3°C 31% Calm Calm 4.0 mph6.4 kmh 29.91 in1012.9 mb 0.00 in0.0 mm 0.00 in0.0 mm 0.00 in0.0 mm
02:30 PM 75.7°F24.3°C 47.6°F8.7°C 37% 1.0 mph N1.6 kmh N 4.0 mph6.4 kmh 29.91 in1012.9 mb 0.00 in0.0 mm 0.00 in0.0 mm 0.00 in0.0 mm
02:35 PM 74.8°F23.8°C 48.9°F9.4°C 40% 4.0 mph N6.4 kmh N 5.0 mph8.0 kmh 29.91 in1012.9 mb 0.00 in0.0 mm 0.00 in0.0 mm 0.00 in0.0 mm
02:40 PM 73.8°F23.2°C 47.3°F8.5°C 39% 4.0 mph N6.4 kmh N 7.0 mph11.3 kmh 29.91 in1012.9 mb 0.00 in0.0 mm 0.00 in0.0 mm 0.00 in0.0 mm
02:45 PM 73.0°F22.8°C 47.9°F8.8°C 41% 2.0 mph N3.2 kmh N 7.0 mph11.3 kmh 29.90 in1012.5 mb 0.00 in0.0 mm 0.00 in0.0 mm 0.00 in0.0 mm
02:50 PM 72.4°F22.4°C 47.4°F8.6°C 41% 1.0 mph N1.6 kmh N 9.0 mph14.5 kmh 29.90 in1012.5 mb 0.00 in0.0 mm 0.00 in0.0 mm 0.00 in0.0 mm
02:55 PM 71.6°F22.0°C 47.3°F8.5°C 42% 5.0 mph N8.0 kmh N 13.0 mph20.9 kmh 29.90 in1012.5 mb 0.00 in0.0 mm 0.00 in0.0 mm 0.00 in0.0 mm
03:00 PM 70.9°F21.6°C 48.5°F9.2°C 45% 6.0 mph N9.7 kmh N 10.0 mph16.1 kmh 29.90 in1012.5 mb 0.00 in0.0 mm 0.00 in0.0 mm 0.00 in0.0 mm
03:05 PM 70.5°F21.4°C 49.9°F9.9°C 48% 4.0 mph N6.4 kmh N 11.0 mph17.7 kmh 29.90 in1012.5 mb 0.00 in0.0 mm 0.00 in0.0 mm 0.00 in0.0 mm
03:10 PM 70.3°F21.3°C 51.3°F10.7°C 51% 8.0 mph N12.9 kmh N 11.0 mph17.7 kmh 29.90 in1012.5 mb 0.00 in0.0 mm 0.00 in0.0 mm 0.00 in0.0 mm
03:15 PM 70.2°F21.2°C 51.8°F11.0°C 52% 5.0 mph N8.0 kmh N 5.0 mph8.0 kmh 29.90 in1012.5 mb 0.00 in0.0 mm 0.00 in0.0 mm 0.00 in0.0 mm
03:20 PM 70.2°F21.2°C 51.2°F10.7°C 51% 6.0 mph N9.7 kmh N 9.0 mph14.5 kmh 29.90 in1012.5 mb 0.00 in0.0 mm 0.00 in0.0 mm 0.00 in0.0 mm
03:25 PM 70.2°F21.2°C 50.2°F10.1°C 49% 4.0 mph N6.4 kmh N 10.0 mph16.1 kmh 29.90 in1012.5 mb 0.00 in0.0 mm 0.00 in0.0 mm 0.00 in0.0 mm
03:30 PM 70.0°F21.1°C 50.0°F10.0°C 49% 5.0 mph N8.0 kmh N 8.0 mph12.9 kmh 29.91 in1012.9 mb 0.00 in0.0 mm 0.00 in0.0 mm 0.00 in0.0 mm
03:35 PM 69.8°F21.0°C 49.8°F9.9°C 49% 6.0 mph N9.7 kmh N 11.0 mph17.7 kmh 29.90 in1012.5 mb 0.00 in0.0 mm 0.00 in0.0 mm 0.00 in0.0 mm
03:40 PM 69.6°F20.9°C 49.1°F9.5°C 48% 3.0 mph N4.8 kmh N 11.0 mph17.7 kmh 29.90 in1012.5 mb 0.00 in0.0 mm 0.00 in0.0 mm 0.00 in0.0 mm
03:45 PM 69.5°F20.8°C 49.0°F9.4°C 48% 2.0 mph N3.2 kmh N 10.0 mph16.1 kmh 29.90 in1012.5 mb 0.00 in0.0 mm 0.00 in0.0 mm 0.00 in0.0 mm
03:50 PM 69.4°F20.8°C 49.4°F9.7°C 49% Calm Calm 10.0 mph16.1 kmh 29.91 in1012.9 mb 0.00 in0.0 mm 0.00 in0.0 mm 0.00 in0.0 mm
03:55 PM 69.4°F20.8°C 49.4°F9.7°C 49% 5.0 mph N8.0 kmh N 10.0 mph16.1 kmh 29.91 in1012.9 mb 0.00 in0.0 mm 0.00 in0.0 mm 0.00 in0.0 mm
04:00 PM 69.4°F20.8°C 49.4°F9.7°C 49% 4.0 mph N6.4 kmh N 7.0 mph11.3 kmh 29.91 in1012.9 mb 0.00 in0.0 mm 0.00 in0.0 mm 0.00 in0.0 mm
04:05 PM 69.0°F20.6°C 52.7°F11.5°C 56% 1.0 mph N1.6 kmh N 9.0 mph14.5 kmh 29.91 in1012.9 mb 0.00 in0.0 mm 0.00 in0.0 mm 0.00 in0.0 mm
04:10 PM 68.0°F20.0°C 54.5°F12.5°C 62% 2.0 mph N3.2 kmh N 9.0 mph14.5 kmh 29.91 in1012.9 mb 0.01 in0.3 mm 0.12 in3.0 mm 0.01 in0.3 mm
04:15 PM 66.6°F19.2°C 53.6°F12.0°C 63% 3.0 mph N4.8 kmh N 4.0 mph6.4 kmh 29.91 in1012.9 mb 0.01 in0.3 mm 0.00 in0.0 mm 0.01 in0.3 mm
04:20 PM 65.9°F18.8°C 54.2°F12.3°C 66% 2.0 mph N3.2 kmh N 4.0 mph6.4 kmh 29.91 in1012.9 mb 0.02 in0.5 mm 0.12 in3.0 mm 0.02 in0.5 mm
04:25 PM 65.8°F18.8°C 53.3°F11.8°C 64% 6.0 mph N9.7 kmh N 8.0 mph12.9 kmh 29.90 in1012.5 mb 0.02 in0.5 mm 0.00 in0.0 mm 0.02 in0.5 mm
04:30 PM 66.1°F18.9°C 54.0°F12.2°C 65% 3.0 mph N4.8 kmh N 3.0 mph4.8 kmh 29.91 in1012.9 mb 0.02 in0.5 mm 0.00 in0.0 mm 0.02 in0.5 mm
04:35 PM 66.5°F19.2°C 56.0°F13.3°C 69% 1.0 mph N1.6 kmh N 3.0 mph4.8 kmh 29.91 in1012.9 mb 0.02 in0.5 mm 0.00 in0.0 mm 0.02 in0.5 mm
04:40 PM 66.9°F19.4°C 55.6°F13.1°C 67% Calm Calm 3.0 mph4.8 kmh 29.91 in1012.9 mb 0.02 in0.5 mm 0.00 in0.0 mm 0.02 in0.5 mm
04:45 PM 67.2°F19.6°C 54.6°F12.6°C 64% Calm Calm -- 29.91 in1012.9 mb 0.02 in0.5 mm 0.00 in0.0 mm 0.02 in0.5 mm
04:50 PM 67.4°F19.7°C 54.4°F12.4°C 63% 1.0 mph N1.6 kmh N 2.0 mph3.2 kmh 29.91 in1012.9 mb 0.02 in0.5 mm 0.00 in0.0 mm 0.02 in0.5 mm
04:55 PM 67.5°F19.7°C 55.3°F12.9°C 65% 2.0 mph N3.2 kmh N 4.0 mph6.4 kmh 29.91 in1012.9 mb 0.02 in0.5 mm 0.00 in0.0 mm 0.02 in0.5 mm
05:00 PM 67.4°F19.7°C 55.7°F13.2°C 66% Calm Calm 1.0 mph1.6 kmh 29.92 in1013.2 mb 0.02 in0.5 mm 0.00 in0.0 mm 0.02 in0.5 mm
05:05 PM 67.0°F19.4°C 52.2°F11.2°C 59% 16.0 mph N25.7 kmh N 18.0 mph29.0 kmh 29.92 in1013.2 mb 0.02 in0.5 mm 0.00 in0.0 mm 0.02 in0.5 mm
05:10 PM 66.4°F19.1°C 51.2°F10.7°C 58% 11.0 mph N17.7 kmh N 18.0 mph29.0 kmh 29.93 in1013.5 mb 0.02 in0.5 mm 0.00 in0.0 mm 0.02 in0.5 mm
05:15 PM 65.9°F18.8°C 50.7°F10.4°C 58% 18.0 mph N29.0 kmh N 19.0 mph30.6 kmh 29.94 in1013.9 mb 0.01 in0.3 mm 0.00 in0.0 mm 0.02 in0.5 mm
05:20 PM 65.1°F18.4°C 49.5°F9.7°C 57% 10.0 mph N16.1 kmh N 22.0 mph35.4 kmh 29.95 in1014.2 mb 0.01 in0.3 mm 0.00 in0.0 mm 0.02 in0.5 mm
05:25 PM 64.4°F18.0°C 49.3°F9.6°C 58% 5.0 mph N8.0 kmh N 25.0 mph40.2 kmh 29.96 in1014.6 mb 0.01 in0.3 mm 0.00 in0.0 mm 0.02 in0.5 mm
05:30 PM 63.7°F17.6°C 50.9°F10.5°C 63% 6.0 mph N9.7 kmh N 16.0 mph25.7 kmh 29.96 in1014.6 mb 0.00 in0.0 mm 0.00 in0.0 mm 0.02 in0.5 mm
05:35 PM 62.1°F16.7°C 52.2°F11.2°C 70% 7.0 mph N11.3 kmh N 17.0 mph27.4 kmh 29.97 in1014.9 mb 0.00 in0.0 mm 0.00 in0.0 mm 0.02 in0.5 mm
05:40 PM 60.4°F15.8°C 52.1°F11.2°C 74% 2.0 mph N3.2 kmh N 17.0 mph27.4 kmh 29.97 in1014.9 mb 0.02 in0.5 mm 0.24 in6.1 mm 0.04 in1.0 mm
05:45 PM 59.4°F15.2°C 51.8°F11.0°C 76% 6.0 mph N9.7 kmh N 6.0 mph9.7 kmh 29.97 in1014.9 mb 0.03 in0.8 mm 0.12 in3.0 mm 0.05 in1.3 mm
05:50 PM 58.7°F14.8°C 52.2°F11.2°C 79% 6.0 mph N9.7 kmh N 9.0 mph14.5 kmh 29.97 in1014.9 mb 0.03 in0.8 mm 0.00 in0.0 mm 0.05 in1.3 mm
05:55 PM 58.3°F14.6°C 52.5°F11.4°C 81% 2.0 mph N3.2 kmh N 9.0 mph14.5 kmh 29.97 in1014.9 mb 0.03 in0.8 mm 0.00 in0.0 mm 0.05 in1.3 mm
06:00 PM 58.2°F14.6°C 52.4°F11.3°C 81% 3.0 mph N4.8 kmh N 4.0 mph6.4 kmh 29.97 in1014.9 mb 0.04 in1.0 mm 0.01 in0.3 mm 0.06 in1.5 mm
06:05 PM 58.1°F14.5°C 53.0°F11.7°C 83% 1.0 mph N1.6 kmh N 5.0 mph8.0 kmh 29.97 in1014.9 mb 0.04 in1.0 mm 0.00 in0.0 mm 0.06 in1.5 mm
06:10 PM 58.2°F14.6°C 53.1°F11.7°C 83% 2.0 mph N3.2 kmh N 6.0 mph9.7 kmh 29.97 in1014.9 mb 0.04 in1.0 mm 0.00 in0.0 mm 0.06 in1.5 mm
06:15 PM 58.3°F14.6°C 53.5°F11.9°C 84% 2.0 mph N3.2 kmh N 4.0 mph6.4 kmh 29.97 in1014.9 mb 0.05 in1.3 mm 0.12 in3.0 mm 0.07 in1.8 mm
06:20 PM 58.4°F14.7°C 53.9°F12.2°C 85% 3.0 mph N4.8 kmh N 9.0 mph14.5 kmh 29.97 in1014.9 mb 0.05 in1.3 mm 0.00 in0.0 mm 0.07 in1.8 mm
06:25 PM 58.6°F14.8°C 54.4°F12.4°C 86% 4.0 mph N6.4 kmh N 9.0 mph14.5 kmh 29.97 in1014.9 mb 0.05 in1.3 mm 0.00 in0.0 mm 0.07 in1.8 mm
06:30 PM 58.8°F14.9°C 54.3°F12.4°C 85% 2.0 mph N3.2 kmh N 2.0 mph3.2 kmh 29.96 in1014.6 mb 0.05 in1.3 mm 0.00 in0.0 mm 0.07 in1.8 mm
06:35 PM 58.9°F14.9°C 54.4°F12.4°C 85% 4.0 mph N6.4 kmh N 7.0 mph11.3 kmh 29.96 in1014.6 mb 0.05 in1.3 mm 0.00 in0.0 mm 0.07 in1.8 mm
06:40 PM 59.0°F15.0°C 54.5°F12.5°C 85% 5.0 mph N8.0 kmh N 9.0 mph14.5 kmh 29.95 in1014.2 mb 0.05 in1.3 mm 0.00 in0.0 mm 0.07 in1.8 mm
06:45 PM 59.1°F15.1°C 54.6°F12.6°C 85% 5.0 mph N8.0 kmh N 6.0 mph9.7 kmh 29.95 in1014.2 mb 0.02 in0.5 mm 0.00 in0.0 mm 0.07 in1.8 mm
06:50 PM 59.3°F15.2°C 54.8°F12.7°C 85% 2.0 mph N3.2 kmh N 7.0 mph11.3 kmh 29.95 in1014.2 mb 0.02 in0.5 mm 0.00 in0.0 mm 0.07 in1.8 mm
06:55 PM 59.3°F15.2°C 54.8°F12.7°C 85% 3.0 mph N4.8 kmh N 7.0 mph11.3 kmh 29.95 in1014.2 mb 0.02 in0.5 mm 0.00 in0.0 mm 0.07 in1.8 mm
07:00 PM 59.3°F15.2°C 55.1°F12.8°C 86% 1.0 mph N1.6 kmh N 2.0 mph3.2 kmh 29.95 in1014.2 mb 0.01 in0.3 mm 0.00 in0.0 mm 0.07 in1.8 mm
07:05 PM 59.3°F15.2°C 54.8°F12.7°C 85% 1.0 mph N1.6 kmh N 4.0 mph6.4 kmh 29.95 in1014.2 mb 0.01 in0.3 mm 0.00 in0.0 mm 0.07 in1.8 mm
07:10 PM 59.3°F15.2°C 54.8°F12.7°C 85% 3.0 mph N4.8 kmh N 4.0 mph6.4 kmh 29.96 in1014.6 mb 0.01 in0.3 mm 0.00 in0.0 mm 0.07 in1.8 mm
07:15 PM 59.3°F15.2°C 54.8°F12.7°C 85% 1.0 mph N1.6 kmh N 1.0 mph1.6 kmh 29.96 in1014.6 mb 0.00 in0.0 mm 0.00 in0.0 mm 0.07 in1.8 mm
07:20 PM 59.3°F15.2°C 54.8°F12.7°C 85% 4.0 mph N6.4 kmh N 4.0 mph6.4 kmh 29.96 in1014.6 mb 0.00 in0.0 mm 0.00 in0.0 mm 0.07 in1.8 mm
07:25 PM 59.3°F15.2°C 54.5°F12.5°C 84% 1.0 mph N1.6 kmh N 5.0 mph8.0 kmh 29.97 in1014.9 mb 0.00 in0.0 mm 0.00 in0.0 mm 0.07 in1.8 mm
07:30 PM 59.3°F15.2°C 54.5°F12.5°C 84% 2.0 mph N3.2 kmh N 3.0 mph4.8 kmh 29.97 in1014.9 mb 0.00 in0.0 mm 0.00 in0.0 mm 0.07 in1.8 mm
07:35 PM 59.2°F15.1°C 54.4°F12.4°C 84% 2.0 mph N3.2 kmh N 4.0 mph6.4 kmh 29.97 in1014.9 mb 0.00 in0.0 mm 0.00 in0.0 mm 0.07 in1.8 mm
07:40 PM 59.2°F15.1°C 54.4°F12.4°C 84% 1.0 mph N1.6 kmh N 4.0 mph6.4 kmh 29.97 in1014.9 mb 0.00 in0.0 mm 0.00 in0.0 mm 0.07 in1.8 mm
07:45 PM 59.1°F15.1°C 54.3°F12.4°C 84% 4.0 mph N6.4 kmh N 4.0 mph6.4 kmh 29.98 in1015.2 mb 0.00 in0.0 mm 0.00 in0.0 mm 0.07 in1.8 mm
07:50 PM 59.1°F15.1°C 54.3°F12.4°C 84% Calm Calm 4.0 mph6.4 kmh 29.98 in1015.2 mb 0.00 in0.0 mm 0.00 in0.0 mm 0.07 in1.8 mm
07:55 PM 59.2°F15.1°C 54.4°F12.4°C 84% 2.0 mph N3.2 kmh N 4.0 mph6.4 kmh 29.98 in1015.2 mb 0.00 in0.0 mm 0.00 in0.0 mm 0.07 in1.8 mm
08:00 PM 59.1°F15.1°C 54.3°F12.4°C 84% Calm Calm -- 29.98 in1015.2 mb 0.00 in0.0 mm 0.00 in0.0 mm 0.07 in1.8 mm
08:05 PM 59.1°F15.1°C 54.3°F12.4°C 84% Calm Calm 2.0 mph3.2 kmh 29.98 in1015.2 mb 0.00 in0.0 mm 0.00 in0.0 mm 0.07 in1.8 mm
08:10 PM 59.1°F15.1°C 54.3°F12.4°C 84% Calm Calm 2.0 mph3.2 kmh 29.99 in1015.6 mb 0.00 in0.0 mm 0.00 in0.0 mm 0.07 in1.8 mm
08:15 PM 59.1°F15.1°C 54.6°F12.6°C 85% 1.0 mph N1.6 kmh N 3.0 mph4.8 kmh 29.99 in1015.6 mb 0.00 in0.0 mm 0.00 in0.0 mm 0.07 in1.8 mm
08:20 PM 59.1°F15.1°C 54.6°F12.6°C 85% Calm Calm 3.0 mph4.8 kmh 29.99 in1015.6 mb 0.00 in0.0 mm 0.00 in0.0 mm 0.07 in1.8 mm
08:25 PM 59.2°F15.1°C 54.7°F12.6°C 85% 2.0 mph N3.2 kmh N 4.0 mph6.4 kmh 29.99 in1015.6 mb 0.00 in0.0 mm 0.00 in0.0 mm 0.07 in1.8 mm
08:30 PM 59.1°F15.1°C 54.3°F12.4°C 84% 8.0 mph N12.9 kmh N 8.0 mph12.9 kmh 29.99 in1015.6 mb 0.00 in0.0 mm 0.00 in0.0 mm 0.07 in1.8 mm
08:35 PM 59.3°F15.2°C 53.5°F11.9°C 81% 4.0 mph N6.4 kmh N 9.0 mph14.5 kmh 29.99 in1015.6 mb 0.00 in0.0 mm 0.00 in0.0 mm 0.07 in1.8 mm
08:40 PM 59.6°F15.3°C 53.8°F12.1°C 81% 3.0 mph N4.8 kmh N 9.0 mph14.5 kmh 30.00 in1015.9 mb 0.00 in0.0 mm 0.00 in0.0 mm 0.07 in1.8 mm
08:45 PM 59.7°F15.4°C 53.5°F11.9°C 80% 3.0 mph N4.8 kmh N 6.0 mph9.7 kmh 30.00 in1015.9 mb 0.00 in0.0 mm 0.00 in0.0 mm 0.07 in1.8 mm
08:50 PM 59.8°F15.4°C 52.9°F11.6°C 78% 8.0 mph N12.9 kmh N 9.0 mph14.5 kmh 30.00 in1015.9 mb 0.00 in0.0 mm 0.00 in0.0 mm 0.07 in1.8 mm
08:55 PM 59.8°F15.4°C 52.9°F11.6°C 78% 4.0 mph N6.4 kmh N 9.0 mph14.5 kmh 30.00 in1015.9 mb 0.00 in0.0 mm 0.00 in0.0 mm 0.07 in1.8 mm
09:00 PM 59.8°F15.4°C 52.9°F11.6°C 78% 4.0 mph N6.4 kmh N 4.0 mph6.4 kmh 30.01 in1016.3 mb 0.00 in0.0 mm 0.00 in0.0 mm 0.07 in1.8 mm
09:05 PM 59.7°F15.4°C 52.8°F11.6°C 78% 2.0 mph N3.2 kmh N 7.0 mph11.3 kmh 30.01 in1016.3 mb 0.00 in0.0 mm 0.00 in0.0 mm 0.07 in1.8 mm
09:10 PM 59.5°F15.3°C 52.6°F11.4°C 78% Calm Calm 7.0 mph11.3 kmh 30.01 in1016.3 mb 0.00 in0.0 mm 0.00 in0.0 mm 0.07 in1.8 mm
09:15 PM 59.4°F15.2°C 52.2°F11.2°C 77% 4.0 mph N6.4 kmh N 5.0 mph8.0 kmh 30.02 in1016.6 mb 0.00 in0.0 mm 0.00 in0.0 mm 0.07 in1.8 mm
09:20 PM 59.3°F15.2°C 52.1°F11.2°C 77% 5.0 mph N8.0 kmh N 5.0 mph8.0 kmh 30.02 in1016.6 mb 0.00 in0.0 mm 0.00 in0.0 mm 0.07 in1.8 mm
09:25 PM 59.2°F15.1°C 52.4°F11.3°C 78% 1.0 mph N1.6 kmh N 6.0 mph9.7 kmh 30.02 in1016.6 mb 0.00 in0.0 mm 0.00 in0.0 mm 0.07 in1.8 mm
09:30 PM 59.0°F15.0°C 51.8°F11.0°C 77% 2.0 mph N3.2 kmh N 4.0 mph6.4 kmh 30.02 in1016.6 mb 0.00 in0.0 mm 0.00 in0.0 mm 0.07 in1.8 mm
09:35 PM 58.9°F14.9°C 51.7°F10.9°C 77% 4.0 mph N6.4 kmh N 6.0 mph9.7 kmh 30.02 in1016.6 mb 0.00 in0.0 mm 0.00 in0.0 mm 0.07 in1.8 mm
09:40 PM 58.9°F14.9°C 51.7°F10.9°C 77% 3.0 mph N4.8 kmh N 7.0 mph11.3 kmh 30.03 in1016.9 mb 0.00 in0.0 mm 0.00 in0.0 mm 0.07 in1.8 mm
09:45 PM 58.8°F14.9°C 51.6°F10.9°C 77% 5.0 mph N8.0 kmh N 7.0 mph11.3 kmh 30.03 in1016.9 mb 0.00 in0.0 mm 0.00 in0.0 mm 0.07 in1.8 mm
09:50 PM 58.7°F14.8°C 51.2°F10.7°C 76% 5.0 mph N8.0 kmh N 8.0 mph12.9 kmh 30.03 in1016.9 mb 0.00 in0.0 mm 0.00 in0.0 mm 0.07 in1.8 mm
09:55 PM 58.8°F14.9°C 51.3°F10.7°C 76% 2.0 mph N3.2 kmh N 8.0 mph12.9 kmh 30.04 in1017.3 mb 0.00 in0.0 mm 0.00 in0.0 mm 0.07 in1.8 mm
10:00 PM 58.8°F14.9°C 51.3°F10.7°C 76% 5.0 mph N8.0 kmh N 5.0 mph8.0 kmh 30.04 in1017.3 mb 0.00 in0.0 mm 0.00 in0.0 mm 0.07 in1.8 mm
10:05 PM 58.7°F14.8°C 50.8°F10.4°C 75% 7.0 mph N11.3 kmh N 9.0 mph14.5 kmh 30.04 in1017.3 mb 0.00 in0.0 mm 0.00 in0.0 mm 0.07 in1.8 mm
10:10 PM 58.8°F14.9°C 50.5°F10.3°C 74% 6.0 mph N9.7 kmh N 13.0 mph20.9 kmh 30.05 in1017.6 mb 0.00 in0.0 mm 0.00 in0.0 mm 0.07 in1.8 mm
10:15 PM 58.7°F14.8°C 50.5°F10.3°C 74% 4.0 mph N6.4 kmh N 4.0 mph6.4 kmh 30.05 in1017.6 mb 0.00 in0.0 mm 0.00 in0.0 mm 0.07 in1.8 mm
10:20 PM 58.4°F14.7°C 50.5°F10.3°C 75% 8.0 mph N12.9 kmh N 8.0 mph12.9 kmh 30.05 in1017.6 mb 0.00 in0.0 mm 0.00 in0.0 mm 0.07 in1.8 mm
10:25 PM 58.0°F14.4°C 50.1°F10.1°C 75% 4.0 mph N6.4 kmh N 11.0 mph17.7 kmh 30.05 in1017.6 mb 0.00 in0.0 mm 0.00 in0.0 mm 0.07 in1.8 mm
10:30 PM 57.6°F14.2°C 50.1°F10.1°C 76% 5.0 mph N8.0 kmh N 5.0 mph8.0 kmh 30.05 in1017.6 mb 0.00 in0.0 mm 0.00 in0.0 mm 0.07 in1.8 mm
10:35 PM 57.2°F14.0°C 50.1°F10.1°C 77% 3.0 mph N4.8 kmh N 8.0 mph12.9 kmh 30.05 in1017.6 mb 0.00 in0.0 mm 0.00 in0.0 mm 0.07 in1.8 mm
10:40 PM 56.8°F13.8°C 49.7°F9.8°C 77% 3.0 mph N4.8 kmh N 8.0 mph12.9 kmh 30.06 in1017.9 mb 0.00 in0.0 mm 0.00 in0.0 mm 0.07 in1.8 mm
10:45 PM 56.4°F13.6°C 49.6°F9.8°C 78% 3.0 mph N4.8 kmh N 4.0 mph6.4 kmh 30.06 in1017.9 mb 0.00 in0.0 mm 0.00 in0.0 mm 0.07 in1.8 mm
10:50 PM 56.1°F13.4°C 49.3°F9.6°C 78% 1.0 mph N1.6 kmh N 6.0 mph9.7 kmh 30.06 in1017.9 mb 0.00 in0.0 mm 0.00 in0.0 mm 0.07 in1.8 mm
10:55 PM 55.8°F13.2°C 49.4°F9.7°C 79% 6.0 mph N9.7 kmh N 6.0 mph9.7 kmh 30.06 in1017.9 mb 0.00 in0.0 mm 0.00 in0.0 mm 0.07 in1.8 mm
11:00 PM 55.5°F13.1°C 49.1°F9.5°C 79% 2.0 mph N3.2 kmh N 3.0 mph4.8 kmh 30.06 in1017.9 mb 0.00 in0.0 mm 0.00 in0.0 mm 0.07 in1.8 mm
11:05 PM 55.3°F12.9°C 48.9°F9.4°C 79% 3.0 mph N4.8 kmh N 5.0 mph8.0 kmh 30.06 in1017.9 mb 0.00 in0.0 mm 0.00 in0.0 mm 0.07 in1.8 mm
11:10 PM 55.1°F12.8°C 49.1°F9.5°C 80% 1.0 mph N1.6 kmh N 5.0 mph8.0 kmh 30.06 in1017.9 mb 0.00 in0.0 mm 0.00 in0.0 mm 0.07 in1.8 mm
11:15 PM 54.8°F12.7°C 48.8°F9.3°C 80% 4.0 mph N6.4 kmh N 4.0 mph6.4 kmh 30.06 in1017.9 mb 0.00 in0.0 mm 0.00 in0.0 mm 0.07 in1.8 mm
11:20 PM 54.5°F12.5°C 48.8°F9.3°C 81% 1.0 mph N1.6 kmh N 4.0 mph6.4 kmh 30.06 in1017.9 mb 0.00 in0.0 mm 0.00 in0.0 mm 0.07 in1.8 mm
11:25 PM 54.2°F12.3°C 48.5°F9.2°C 81% 1.0 mph N1.6 kmh N 4.0 mph6.4 kmh 30.06 in1017.9 mb 0.00 in0.0 mm 0.00 in0.0 mm 0.07 in1.8 mm
11:30 PM 53.9°F12.2°C 48.5°F9.2°C 82% 1.0 mph N1.6 kmh N 2.0 mph3.2 kmh 30.06 in1017.9 mb 0.00 in0.0 mm 0.00 in0.0 mm 0.07 in1.8 mm
11:35 PM 53.6°F12.0°C 48.6°F9.2°C 83% 2.0 mph N3.2 kmh N 3.0 mph4.8 kmh 30.06 in1017.9 mb 0.00 in0.0 mm 0.00 in0.0 mm 0.07 in1.8 mm
11:40 PM 53.2°F11.8°C 48.5°F9.2°C 84% 2.0 mph N3.2 kmh N 3.0 mph4.8 kmh 30.06 in1017.9 mb 0.00 in0.0 mm 0.00 in0.0 mm 0.07 in1.8 mm
11:45 PM 52.9°F11.6°C 48.5°F9.2°C 85% 4.0 mph N6.4 kmh N 4.0 mph6.4 kmh 30.06 in1017.9 mb 0.00 in0.0 mm 0.00 in0.0 mm 0.07 in1.8 mm
11:50 PM 52.5°F11.4°C 48.1°F8.9°C 85% 1.0 mph N1.6 kmh N 4.0 mph6.4 kmh 30.06 in1017.9 mb 0.00 in0.0 mm 0.00 in0.0 mm 0.07 in1.8 mm
11:55 PM 52.2°F11.2°C 48.2°F9.0°C 86% 2.0 mph N3.2 kmh N 4.0 mph6.4 kmh 30.06 in1017.9 mb 0.00 in0.0 mm 0.00 in0.0 mm 0.07 in1.8 mm